Time;durP1;ratioP1;P1;durP2;ratioP2;P2;SDS_P1;SDS_P2;PMS_P1;PMS_P2;Temp;Humidity;BMP_temperature;BMP_pressure;BME280_temperature;BME280_humidity;BME280_pressure;Samples;Min_cycle;Max_cycle;Signal;HPM_P1;HPM_P2
2023/06/10 00:02:27;;;;;;;193.70;52.90;;;;;;;;;;10427235;28;20027;-83
2023/06/10 00:07:28;;;;;;;53.15;30.85;;;;;;;;;;10435230;28;20056;-82
2023/06/10 00:12:31;;;;;;;105.47;42.83;;;;;;;;;;10433811;28;20048;-83
2023/06/10 00:17:32;;;;;;;46.10;30.23;;;;;;;;;;10426071;28;20470;-84
2023/06/10 00:22:33;;;;;;;95.53;40.33;;;;;;;;;;10398517;28;20091;-85
2023/06/10 00:27:35;;;;;;;48.55;30.08;;;;;;;;;;10436168;28;20680;-83
2023/06/10 00:32:37;;;;;;;51.45;31.38;;;;;;;;;;10435594;28;20036;-85
2023/06/10 00:37:38;;;;;;;49.13;31.42;;;;;;;;;;10429798;28;20025;-84
2023/06/10 00:42:39;;;;;;;46.83;31.92;;;;;;;;;;10435394;28;20392;-84
2023/06/10 00:47:40;;;;;;;53.03;34.60;;;;;;;;;;10423932;28;20025;-86
2023/06/10 00:52:46;;;;;;;53.42;33.22;;;;;;;;;;10427173;28;20665;-87
2023/06/10 00:57:48;;;;;;;;;;;;;;;;;;10418135;28;20070;-85
2023/06/10 01:02:49;;;;;;;52.63;35.33;;;;;;;;;;10432698;28;19912;-83
2023/06/10 01:08:15;;;;;;;54.42;36.13;;;;;;;;;;10430103;28;20030;-86
2023/06/10 01:13:16;;;;;;;58.22;37.83;;;;;;;;;;10434131;28;20067;-83
2023/06/10 01:18:17;;;;;;;58.72;37.40;;;;;;;;;;10415552;28;20033;-84
2023/06/10 01:23:18;;;;;;;54.28;37.13;;;;;;;;;;10434652;28;20427;-87
2023/06/10 01:28:22;;;;;;;55.33;38.20;;;;;;;;;;10447096;28;20021;-87
2023/06/10 01:33:27;;;;;;;56.00;40.00;;;;;;;;;;10436737;28;20041;-84
2023/06/10 01:38:31;;;;;;;57.78;39.35;;;;;;;;;;10428166;28;20028;-85
2023/06/10 01:43:54;;;;;;;54.42;38.17;;;;;;;;;;10425405;28;20021;-85
2023/06/10 01:48:56;;;;;;;60.75;41.78;;;;;;;;;;10425441;28;20033;-84
2023/06/10 01:53:57;;;;;;;68.22;44.05;;;;;;;;;;10442654;28;20045;-85
2023/06/10 01:58:59;;;;;;;60.55;40.90;;;;;;;;;;10438940;28;20380;-85
2023/06/10 02:04:00;;;;;;;65.55;44.75;;;;;;;;;;10427537;28;20115;-84
2023/06/10 02:09:01;;;;;;;64.40;41.03;;;;;;;;;;10440131;28;20056;-83
2023/06/10 02:14:02;;;;;;;60.92;41.95;;;;;;;;;;10431379;28;20084;-83
2023/06/10 02:19:06;;;;;;;66.30;43.22;;;;;;;;;;10432418;28;20031;-84
2023/06/10 02:24:07;;;;;;;62.63;43.10;;;;;;;;;;10437064;28;20121;-85
2023/06/10 02:29:08;;;;;;;67.47;45.10;;;;;;;;;;10427314;28;20474;-83
2023/06/10 02:34:31;;;;;;;72.47;47.05;;;;;;;;;;10437534;28;20037;-84
2023/06/10 02:39:32;;;;;;;73.18;47.00;;;;;;;;;;10436521;28;20543;-83
2023/06/10 02:44:33;;;;;;;70.15;46.85;;;;;;;;;;10441691;28;20029;-84
2023/06/10 02:49:34;;;;;;;72.15;48.03;;;;;;;;;;10426423;28;20027;-84
2023/06/10 02:54:35;;;;;;;80.47;50.78;;;;;;;;;;10424451;28;20040;-84
2023/06/10 02:59:36;;;;;;;68.43;45.38;;;;;;;;;;10419321;28;20032;-84
2023/06/10 03:04:38;;;;;;;64.03;45.90;;;;;;;;;;10425907;28;20033;-84
2023/06/10 03:09:39;;;;;;;63.95;44.85;;;;;;;;;;10421384;28;20041;-85
2023/06/10 03:14:40;;;;;;;65.80;45.15;;;;;;;;;;10410496;28;20037;-84
2023/06/10 03:19:41;;;;;;;63.33;44.17;;;;;;;;;;10428900;28;20120;-86
2023/06/10 03:24:43;;;;;;;55.50;40.70;;;;;;;;;;10431538;28;20634;-86
2023/06/10 03:29:44;;;;;;;52.95;37.63;;;;;;;;;;10438124;28;20098;-84
2023/06/10 03:34:47;;;;;;;67.38;41.97;;;;;;;;;;10444274;28;20032;-86
2023/06/10 03:39:48;;;;;;;63.33;41.00;;;;;;;;;;10417055;28;20028;-84
2023/06/10 03:44:49;;;;;;;51.60;35.78;;;;;;;;;;10426291;28;20040;-87
2023/06/10 03:49:50;;;;;;;46.78;34.55;;;;;;;;;;10420363;28;20036;-86
2023/06/10 03:54:51;;;;;;;47.50;34.45;;;;;;;;;;10431720;28;20053;-84
2023/06/10 03:59:52;;;;;;;47.88;35.97;;;;;;;;;;10412054;28;20379;-83
2023/06/10 04:04:53;;;;;;;51.90;36.47;;;;;;;;;;10427142;28;20045;-84
2023/06/10 04:09:54;;;;;;;51.33;35.08;;;;;;;;;;10434456;28;20431;-84
2023/06/10 04:14:55;;;;;;;40.25;29.98;;;;;;;;;;10446109;28;20079;-84
2023/06/10 04:19:56;;;;;;;53.45;36.83;;;;;;;;;;10434823;28;20086;-86
2023/06/10 04:24:58;;;;;;;40.15;29.60;;;;;;;;;;10433257;28;20038;-85
2023/06/10 04:29:59;;;;;;;45.40;31.83;;;;;;;;;;10430129;28;20031;-85
2023/06/10 04:35:01;;;;;;;38.50;28.30;;;;;;;;;;10408726;28;20444;-85
2023/06/10 04:40:03;;;;;;;42.47;31.27;;;;;;;;;;10423919;28;20047;-86
2023/06/10 04:45:04;;;;;;;35.25;27.67;;;;;;;;;;10412039;28;20033;-85
2023/06/10 04:50:05;;;;;;;49.40;35.60;;;;;;;;;;10414793;28;20115;-86
2023/06/10 04:55:07;;;;;;;34.22;28.35;;;;;;;;;;10403335;28;20392;-90
2023/06/10 05:00:08;;;;;;;38.05;28.95;;;;;;;;;;10440606;28;20031;-85
2023/06/10 05:05:09;;;;;;;33.22;25.85;;;;;;;;;;10423261;28;20052;-87
2023/06/10 05:10:12;;;;;;;35.20;26.45;;;;;;;;;;10401974;28;20088;-88
2023/06/10 05:15:15;;;;;;;31.48;24.83;;;;;;;;;;10432065;28;20127;-88
2023/06/10 05:20:16;;;;;;;45.13;29.92;;;;;;;;;;10416645;28;20083;-91
2023/06/10 05:25:17;;;;;;;29.42;22.52;;;;;;;;;;10416927;28;20029;-91
2023/06/10 05:30:18;;;;;;;31.60;23.70;;;;;;;;;;10404342;28;20767;-90
2023/06/10 05:35:19;;;;;;;32.90;25.00;;;;;;;;;;10402976;28;20379;-87
2023/06/10 05:40:20;;;;;;;25.48;20.35;;;;;;;;;;10399469;28;20531;-87
2023/06/10 05:45:21;;;;;;;24.25;18.92;;;;;;;;;;10416136;28;20028;-89
2023/06/10 05:50:22;;;;;;;22.50;18.75;;;;;;;;;;10406425;28;20036;-89
2023/06/10 05:55:26;;;;;;;21.63;16.58;;;;;;;;;;10408369;28;20372;-91
2023/06/10 06:00:27;;;;;;;17.92;15.52;;;;;;;;;;10427966;28;20021;-88
2023/06/10 06:05:34;;;;;;;19.05;14.88;;;;;;;;;;10419047;28;20495;-91
2023/06/10 06:10:35;;;;;;;17.55;13.45;;;;;;;;;;10426420;28;20457;-89
2023/06/10 06:15:36;;;;;;;16.55;13.73;;;;;;;;;;10427045;28;20176;-91
2023/06/10 06:20:40;;;;;;;18.50;15.88;;;;;;;;;;10426341;28;20484;-91
2023/06/10 06:25:41;;;;;;;17.40;14.07;;;;;;;;;;10410144;28;20098;-92
2023/06/10 06:30:42;;;;;;;15.20;12.63;;;;;;;;;;10429273;28;20029;-91
2023/06/10 06:35:44;;;;;;;16.52;14.27;;;;;;;;;;10429680;28;20048;-88
2023/06/10 06:40:45;;;;;;;21.20;15.43;;;;;;;;;;10434393;28;20025;-86
2023/06/10 06:45:46;;;;;;;16.50;12.82;;;;;;;;;;10423945;28;20026;-89
2023/06/10 06:50:47;;;;;;;14.13;12.52;;;;;;;;;;10409416;28;20117;-92
2023/06/10 06:55:48;;;;;;;14.88;12.07;;;;;;;;;;10400494;28;20033;-88
2023/06/10 07:00:50;;;;;;;13.30;11.15;;;;;;;;;;10422287;28;20036;-91
2023/06/10 07:05:51;;;;;;;16.45;11.75;;;;;;;;;;10426331;28;20021;-86
2023/06/10 07:10:52;;;;;;;15.15;12.38;;;;;;;;;;10408875;28;20567;-86
2023/06/10 07:15:53;;;;;;;14.82;12.43;;;;;;;;;;10424685;28;20043;-90
2023/06/10 07:20:54;;;;;;;15.50;12.40;;;;;;;;;;10412758;28;20033;-87
2023/06/10 07:25:55;;;;;;;12.88;11.52;;;;;;;;;;10430272;28;20376;-88
2023/06/10 07:30:56;;;;;;;16.45;10.07;;;;;;;;;;10446138;28;20036;-88
2023/06/10 07:35:57;;;;;;;11.98;10.70;;;;;;;;;;10412922;28;20052;-87
2023/06/10 07:40:58;;;;;;;10.70;9.55;;;;;;;;;;10408224;28;20029;-87
2023/06/10 07:45:59;;;;;;;11.13;9.90;;;;;;;;;;10413682;28;20232;-87
2023/06/10 07:51:00;;;;;;;12.80;9.38;;;;;;;;;;10419269;28;20518;-86
2023/06/10 07:56:01;;;;;;;12.27;9.70;;;;;;;;;;10398810;28;20034;-86
2023/06/10 08:01:02;;;;;;;11.65;9.77;;;;;;;;;;10435544;28;20029;-89
2023/06/10 08:06:04;;;;;;;11.88;9.73;;;;;;;;;;10437055;28;20029;-86
2023/06/10 08:11:05;;;;;;;11.43;9.73;;;;;;;;;;10440659;28;20064;-88
2023/06/10 08:16:07;;;;;;;12.25;10.10;;;;;;;;;;10428831;28;20142;-86
2023/06/10 08:21:08;;;;;;;12.02;9.52;;;;;;;;;;10437125;28;20052;-87
2023/06/10 08:26:09;;;;;;;11.48;9.80;;;;;;;;;;10445929;28;20377;-87
2023/06/10 08:31:10;;;;;;;11.30;9.50;;;;;;;;;;10427792;28;20016;-86
2023/06/10 08:36:11;;;;;;;14.88;10.30;;;;;;;;;;10426850;28;20037;-87
2023/06/10 08:41:15;;;;;;;10.90;8.85;;;;;;;;;;10444782;28;20166;-88
2023/06/10 08:46:16;;;;;;;12.25;9.40;;;;;;;;;;10436697;28;20060;-89
2023/06/10 08:51:18;;;;;;;9.32;8.13;;;;;;;;;;10417465;28;20039;-88
2023/06/10 08:56:20;;;;;;;11.02;8.70;;;;;;;;;;10418187;28;20123;-92
2023/06/10 09:01:21;;;;;;;11.73;8.80;;;;;;;;;;10425121;28;20021;-84
2023/06/10 09:06:22;;;;;;;13.02;8.20;;;;;;;;;;10418408;28;20028;-89
2023/06/10 09:11:23;;;;;;;9.90;7.78;;;;;;;;;;10410385;28;20209;-88
2023/06/10 09:17:00;;;;;;;7.85;7.05;;;;;;;;;;10426952;28;20155;-87
2023/06/10 09:22:01;;;;;;;9.27;7.72;;;;;;;;;;10400942;28;20136;-87
2023/06/10 09:27:09;;;;;;;7.15;6.22;;;;;;;;;;10431858;28;20037;-85
2023/06/10 09:32:14;;;;;;;7.18;5.75;;;;;;;;;;10417369;28;20033;-87
2023/06/10 09:37:24;;;;;;;5.60;4.97;;;;;;;;;;10441827;28;20469;-87
2023/06/10 09:42:25;;;;;;;7.90;5.80;;;;;;;;;;10422802;28;20037;-90
2023/06/10 09:53:12;;;;;;;7.97;5.68;;;;;;;;;;10390845;28;20048;-89
2023/06/10 09:58:15;;;;;;;8.20;6.13;;;;;;;;;;10406628;28;20063;-89
2023/06/10 10:03:23;;;;;;;7.88;6.10;;;;;;;;;;10430935;28;20061;-86
2023/06/10 10:08:24;;;;;;;7.35;5.47;;;;;;;;;;10425412;28;20032;-87
2023/06/10 10:13:27;;;;;;;6.22;5.15;;;;;;;;;;10425202;28;20056;-86
2023/06/10 10:18:30;;;;;;;6.68;5.13;;;;;;;;;;10418502;28;20035;-88
2023/06/10 10:23:51;;;;;;;6.32;5.65;;;;;;;;;;10415839;28;20033;-87
2023/06/10 10:28:54;;;;;;;5.20;4.65;;;;;;;;;;10410975;28;20021;-85
2023/06/10 10:33:58;;;;;;;5.63;4.50;;;;;;;;;;10421921;28;20029;-82
2023/06/10 10:39:01;;;;;;;6.68;4.75;;;;;;;;;;10435437;28;20024;-85
2023/06/10 10:44:05;;;;;;;5.70;4.68;;;;;;;;;;10433371;28;20079;-86
2023/06/10 10:49:06;;;;;;;6.15;4.90;;;;;;;;;;10427017;28;20038;-86
2023/06/10 10:54:12;;;;;;;5.30;4.53;;;;;;;;;;10429142;28;20039;-84
2023/06/10 10:59:19;;;;;;;5.45;4.60;;;;;;;;;;10446919;28;20025;-85
2023/06/10 11:04:30;;;;;;;7.88;4.65;;;;;;;;;;10432861;28;20021;-86
2023/06/10 11:09:31;;;;;;;5.93;4.80;;;;;;;;;;10431074;28;20488;-85
2023/06/10 11:14:35;;;;;;;6.22;5.40;;;;;;;;;;10435385;28;20037;-84
2023/06/10 11:19:37;;;;;;;6.88;5.18;;;;;;;;;;10426244;28;20655;-85
2023/06/10 11:24:38;;;;;;;6.88;4.78;;;;;;;;;;10416968;28;20025;-82
2023/06/10 11:29:39;;;;;;;9.73;5.38;;;;;;;;;;10419857;28;20029;-85
2023/06/10 11:34:40;;;;;;;6.10;5.40;;;;;;;;;;10431083;28;20037;-84
2023/06/10 11:39:41;;;;;;;6.70;5.22;;;;;;;;;;10417293;28;20017;-87
2023/06/10 11:44:48;;;;;;;5.70;5.10;;;;;;;;;;10428389;28;20776;-86
2023/06/10 11:49:57;;;;;;;6.30;5.47;;;;;;;;;;10425760;28;20025;-86
2023/06/10 11:54:59;;;;;;;5.85;5.25;;;;;;;;;;10400015;28;20049;-87
2023/06/10 12:00:04;;;;;;;6.72;5.85;;;;;;;;;;10444492;28;20533;-87
2023/06/10 12:05:13;;;;;;;6.03;5.43;;;;;;;;;;10402987;28;20029;-86
2023/06/10 12:10:14;;;;;;;7.90;5.18;;;;;;;;;;10433451;28;20064;-86
2023/06/10 12:15:25;;;;;;;6.40;5.55;;;;;;;;;;10418279;28;20041;-87
2023/06/10 12:20:28;;;;;;;6.10;5.30;;;;;;;;;;10412721;28;20033;-86
2023/06/10 12:25:29;;;;;;;5.85;4.90;;;;;;;;;;10444918;28;20023;-87
2023/06/10 12:30:32;;;;;;;6.13;4.68;;;;;;;;;;10426406;28;20028;-86
2023/06/10 12:35:34;;;;;;;7.95;5.72;;;;;;;;;;10448566;28;20090;-86
2023/06/10 12:40:37;;;;;;;6.38;5.63;;;;;;;;;;10396960;28;20037;-87
2023/06/10 12:45:43;;;;;;;7.80;5.60;;;;;;;;;;10431519;28;20024;-87
2023/06/10 12:50:45;;;;;;;7.53;5.47;;;;;;;;;;10421477;28;20029;-87
2023/06/10 12:55:46;;;;;;;7.03;5.50;;;;;;;;;;10447016;28;20033;-86
2023/06/10 13:00:48;;;;;;;7.75;5.68;;;;;;;;;;10442254;28;20021;-89
2023/06/10 13:05:49;;;;;;;7.18;5.25;;;;;;;;;;10418119;28;20086;-87
2023/06/10 13:10:50;;;;;;;9.35;6.68;;;;;;;;;;10424457;28;20068;-88
2023/06/10 13:15:52;;;;;;;5.55;5.05;;;;;;;;;;10422339;28;20037;-87
2023/06/10 13:20:53;;;;;;;7.38;5.18;;;;;;;;;;10442894;28;20041;-86
2023/06/10 13:25:54;;;;;;;5.68;5.13;;;;;;;;;;10447480;28;20029;-85
2023/06/10 13:30:55;;;;;;;6.32;5.72;;;;;;;;;;10432712;28;20025;-85
2023/06/10 13:35:56;;;;;;;6.18;5.63;;;;;;;;;;10436144;28;20025;-86
2023/06/10 13:40:57;;;;;;;6.88;6.15;;;;;;;;;;10440970;28;20052;-88
2023/06/10 13:45:58;;;;;;;7.05;5.57;;;;;;;;;;10418846;28;20029;-87
2023/06/10 13:50:59;;;;;;;7.47;6.30;;;;;;;;;;10419656;28;20107;-87
2023/06/10 13:56:01;;;;;;;9.05;6.75;;;;;;;;;;10429491;28;20107;-89
2023/06/10 14:01:02;;;;;;;9.77;5.50;;;;;;;;;;10414557;28;20094;-90
2023/06/10 14:06:03;;;;;;;6.07;4.90;;;;;;;;;;10408787;28;20112;-91
2023/06/10 14:16:43;;;;;;;6.78;5.45;;;;;;;;;;10428285;28;20032;-90
2023/06/10 14:21:47;;;;;;;7.78;5.90;;;;;;;;;;10405935;28;20033;-91
2023/06/10 14:26:48;;;;;;;9.82;6.80;;;;;;;;;;10396568;28;20029;-88
2023/06/10 14:31:52;;;;;;;8.98;7.35;;;;;;;;;;10415007;28;20388;-87
2023/06/10 14:36:53;;;;;;;8.27;7.43;;;;;;;;;;10410046;28;20017;-86
2023/06/10 14:41:54;;;;;;;10.02;8.20;;;;;;;;;;10408273;28;20025;-86
2023/06/10 14:46:55;;;;;;;10.38;8.60;;;;;;;;;;10420770;28;20009;-86
2023/06/10 14:51:56;;;;;;;10.43;9.20;;;;;;;;;;10411048;28;20038;-86
2023/06/10 14:56:57;;;;;;;10.60;9.15;;;;;;;;;;10414061;28;20033;-87
2023/06/10 15:02:00;;;;;;;11.20;8.65;;;;;;;;;;10420990;28;20715;-86
2023/06/10 15:07:01;;;;;;;10.10;8.68;;;;;;;;;;10434150;28;20410;-87
2023/06/10 15:12:08;;;;;;;9.82;8.82;;;;;;;;;;10419907;28;20060;-86
2023/06/10 15:17:09;;;;;;;11.20;8.50;;;;;;;;;;10402690;28;20063;-86
2023/06/10 15:22:11;;;;;;;12.05;9.60;;;;;;;;;;10408847;28;20045;-86
2023/06/10 15:27:13;;;;;;;11.98;9.98;;;;;;;;;;10415280;28;20040;-85
2023/06/10 15:32:14;;;;;;;10.40;9.20;;;;;;;;;;10439465;28;20025;-88
2023/06/10 15:37:15;;;;;;;10.35;9.23;;;;;;;;;;10414359;28;20032;-86
2023/06/10 15:42:16;;;;;;;13.05;9.13;;;;;;;;;;10439182;28;20051;-86
2023/06/10 15:47:17;;;;;;;10.75;8.82;;;;;;;;;;10421200;28;20037;-87
2023/06/10 15:52:18;;;;;;;9.15;8.18;;;;;;;;;;10424071;28;20882;-88
2023/06/10 15:57:19;;;;;;;8.35;7.32;;;;;;;;;;10412438;28;20017;-86
2023/06/10 16:02:21;;;;;;;8.05;7.20;;;;;;;;;;10419838;28;20036;-86
2023/06/10 16:07:22;;;;;;;7.55;6.85;;;;;;;;;;10423519;28;20029;-86
2023/06/10 16:12:23;;;;;;;6.78;6.00;;;;;;;;;;10410409;28;20057;-82
2023/06/10 16:17:24;;;;;;;6.78;6.07;;;;;;;;;;10416890;28;20048;-85
2023/06/10 16:22:25;;;;;;;6.20;5.60;;;;;;;;;;10424122;28;20044;-84
2023/06/10 16:27:26;;;;;;;9.20;6.00;;;;;;;;;;10439451;28;20025;-84
2023/06/10 16:32:27;;;;;;;8.00;5.95;;;;;;;;;;10443700;28;20040;-84
2023/06/10 16:37:29;;;;;;;6.88;6.03;;;;;;;;;;10445422;28;20052;-86
2023/06/10 16:42:30;;;;;;;7.72;5.85;;;;;;;;;;10424382;28;20043;-84
2023/06/10 16:47:31;;;;;;;7.93;6.32;;;;;;;;;;10429948;28;20029;-82
2023/06/10 16:52:32;;;;;;;7.03;6.05;;;;;;;;;;10445401;28;20020;-84
2023/06/10 16:57:33;;;;;;;7.60;6.80;;;;;;;;;;10446579;28;20028;-82
2023/06/10 17:02:34;;;;;;;10.32;6.15;;;;;;;;;;10426354;28;20068;-82
2023/06/10 17:07:35;;;;;;;9.35;6.75;;;;;;;;;;10432373;28;20116;-82
2023/06/10 17:12:36;;;;;;;7.65;6.40;;;;;;;;;;10422664;28;20096;-82
2023/06/10 17:17:37;;;;;;;7.20;5.85;;;;;;;;;;10435908;28;20037;-82
2023/06/10 17:22:39;;;;;;;7.40;5.70;;;;;;;;;;10428690;28;20110;-83
2023/06/10 17:27:40;;;;;;;6.68;5.63;;;;;;;;;;10442360;28;20103;-82
2023/06/10 17:32:41;;;;;;;6.65;5.45;;;;;;;;;;10442480;28;20475;-84
2023/06/10 17:37:42;;;;;;;7.63;5.35;;;;;;;;;;10448545;28;20028;-82
2023/06/10 17:42:43;;;;;;;7.68;5.22;;;;;;;;;;10443621;28;20037;-82
2023/06/10 17:47:44;;;;;;;5.32;4.35;;;;;;;;;;10417784;28;20025;-84
2023/06/10 17:52:45;;;;;;;6.72;4.40;;;;;;;;;;10417848;28;20455;-82
2023/06/10 17:57:46;;;;;;;5.68;4.00;;;;;;;;;;10446002;28;20113;-82
2023/06/10 18:02:47;;;;;;;5.45;4.13;;;;;;;;;;10410479;28;20025;-82
2023/06/10 18:07:48;;;;;;;6.45;4.53;;;;;;;;;;10437350;28;20029;-83
2023/06/10 18:12:49;;;;;;;5.55;4.20;;;;;;;;;;10425054;28;20059;-83
2023/06/10 18:17:51;;;;;;;5.72;4.10;;;;;;;;;;10435560;28;20024;-85
2023/06/10 18:22:52;;;;;;;6.05;4.20;;;;;;;;;;10427038;28;20038;-84
2023/06/10 18:27:53;;;;;;;5.35;3.58;;;;;;;;;;10409260;28;20060;-85
2023/06/10 18:32:54;;;;;;;4.35;3.78;;;;;;;;;;10430147;28;20017;-86
2023/06/10 18:37:55;;;;;;;5.53;4.10;;;;;;;;;;10413989;28;20146;-87
2023/06/10 18:42:56;;;;;;;4.47;3.90;;;;;;;;;;10419549;28;20065;-87
2023/06/10 18:47:57;;;;;;;4.90;4.15;;;;;;;;;;10417371;28;20035;-86
2023/06/10 18:52:58;;;;;;;5.68;4.10;;;;;;;;;;10417356;28;20126;-86
2023/06/10 18:57:59;;;;;;;5.70;4.43;;;;;;;;;;10403300;28;20527;-84
2023/06/10 19:03:00;;;;;;;5.40;3.88;;;;;;;;;;10431093;28;20044;-83
2023/06/10 19:08:01;;;;;;;5.80;4.72;;;;;;;;;;10431405;28;20033;-85
2023/06/10 19:13:02;;;;;;;7.68;4.70;;;;;;;;;;10435514;28;20120;-84
2023/06/10 19:18:04;;;;;;;6.63;4.63;;;;;;;;;;10439988;28;20025;-86
2023/06/10 19:23:05;;;;;;;6.15;4.95;;;;;;;;;;10423807;28;20029;-84
2023/06/10 19:28:06;;;;;;;6.40;5.20;;;;;;;;;;10419727;28;20086;-86
2023/06/10 19:33:13;;;;;;;8.00;5.50;;;;;;;;;;10434226;28;20043;-85
2023/06/10 19:38:14;;;;;;;8.13;6.40;;;;;;;;;;10452057;28;20533;-84
2023/06/10 19:43:15;;;;;;;10.18;6.60;;;;;;;;;;10457933;28;20032;-87
2023/06/10 19:48:16;;;;;;;8.43;6.38;;;;;;;;;;10425527;28;20036;-87
2023/06/10 19:53:17;;;;;;;7.70;5.90;;;;;;;;;;10403237;28;20048;-85
2023/06/10 19:58:19;;;;;;;7.88;6.10;;;;;;;;;;10421121;28;20682;-86
2023/06/10 20:03:20;;;;;;;7.93;6.35;;;;;;;;;;10424324;28;20036;-86
2023/06/10 20:08:21;;;;;;;10.65;6.97;;;;;;;;;;10412817;28;20363;-87
2023/06/10 20:13:22;;;;;;;10.93;7.30;;;;;;;;;;10427623;28;20040;-84
2023/06/10 20:18:23;;;;;;;9.55;6.60;;;;;;;;;;10443822;28;20418;-85
2023/06/10 20:23:24;;;;;;;11.05;7.47;;;;;;;;;;10435201;28;20033;-87
2023/06/10 20:28:26;;;;;;;8.43;7.10;;;;;;;;;;10445948;28;20028;-87
2023/06/10 20:33:27;;;;;;;11.27;7.30;;;;;;;;;;10442405;28;20033;-84
2023/06/10 20:38:28;;;;;;;11.25;7.80;;;;;;;;;;10443123;28;20159;-84
2023/06/10 20:43:29;;;;;;;11.23;7.22;;;;;;;;;;10411693;28;20033;-84
2023/06/10 20:48:30;;;;;;;10.73;7.78;;;;;;;;;;10404472;28;20033;-84
2023/06/10 20:53:31;;;;;;;9.70;7.68;;;;;;;;;;10438028;28;20029;-84
2023/06/10 20:58:33;;;;;;;12.98;8.77;;;;;;;;;;10423869;28;20419;-87
2023/06/10 21:03:34;;;;;;;12.70;8.93;;;;;;;;;;10422004;28;20041;-84
2023/06/10 21:08:35;;;;;;;14.10;8.57;;;;;;;;;;10439908;28;20079;-86
2023/06/10 21:13:36;;;;;;;10.35;8.07;;;;;;;;;;10427280;28;20028;-86
2023/06/10 21:18:37;;;;;;;14.00;8.15;;;;;;;;;;10432484;28;20041;-85
2023/06/10 21:23:39;;;;;;;9.70;7.97;;;;;;;;;;10420165;28;20032;-85
2023/06/10 21:28:40;;;;;;;12.45;9.48;;;;;;;;;;10448401;28;20025;-83
2023/06/10 21:33:41;;;;;;;12.82;9.32;;;;;;;;;;10451883;28;20023;-84
2023/06/10 21:38:42;;;;;;;11.98;9.25;;;;;;;;;;10439883;28;20701;-84
2023/06/10 21:43:43;;;;;;;10.63;8.90;;;;;;;;;;10443864;28;20025;-84
2023/06/10 21:48:44;;;;;;;11.25;9.23;;;;;;;;;;10434262;28;20731;-84
2023/06/10 21:53:45;;;;;;;11.35;9.75;;;;;;;;;;10426438;28;20021;-85
2023/06/10 21:58:47;;;;;;;12.60;9.20;;;;;;;;;;10436881;28;20079;-86
2023/06/10 22:03:54;;;;;;;12.40;9.40;;;;;;;;;;10439728;28;20025;-84
2023/06/10 22:08:57;;;;;;;12.35;9.27;;;;;;;;;;10430458;28;20106;-86
2023/06/10 22:13:58;;;;;;;20.88;10.13;;;;;;;;;;10432154;28;20035;-84
2023/06/10 22:18:59;;;;;;;11.48;9.68;;;;;;;;;;10447159;28;20035;-84
2023/06/10 22:24:00;;;;;;;12.43;9.18;;;;;;;;;;10440427;28;20112;-84
2023/06/10 22:29:01;;;;;;;12.15;9.68;;;;;;;;;;10423964;28;20128;-84
2023/06/10 22:34:02;;;;;;;11.57;9.00;;;;;;;;;;10447931;28;20033;-84
2023/06/10 22:39:03;;;;;;;12.65;9.80;;;;;;;;;;10449213;28;20028;-85
2023/06/10 22:44:04;;;;;;;11.10;9.82;;;;;;;;;;10449428;28;20060;-87
2023/06/10 22:49:05;;;;;;;12.10;9.65;;;;;;;;;;10447492;28;20033;-84
2023/06/10 22:54:06;;;;;;;16.17;9.80;;;;;;;;;;10447376;28;20110;-87
2023/06/10 22:59:07;;;;;;;15.48;10.60;;;;;;;;;;10448262;28;20361;-86
2023/06/10 23:04:08;;;;;;;13.60;9.98;;;;;;;;;;10433344;28;20049;-86
2023/06/10 23:09:10;;;;;;;12.93;10.55;;;;;;;;;;10428024;28;20439;-84
2023/06/10 23:14:12;;;;;;;14.05;10.25;;;;;;;;;;10428702;28;20058;-84
2023/06/10 23:19:17;;;;;;;11.85;10.13;;;;;;;;;;10431741;28;20608;-84
2023/06/10 23:24:26;;;;;;;14.40;9.93;;;;;;;;;;10447542;28;20166;-83
2023/06/10 23:29:27;;;;;;;14.05;10.77;;;;;;;;;;10447984;28;20455;-83
2023/06/10 23:34:28;;;;;;;11.82;9.52;;;;;;;;;;10431369;28;20482;-86
2023/06/10 23:39:30;;;;;;;12.25;10.20;;;;;;;;;;10445495;28;20032;-85
2023/06/10 23:44:31;;;;;;;13.48;10.80;;;;;;;;;;10447466;28;20029;-88
2023/06/10 23:49:32;;;;;;;14.23;11.20;;;;;;;;;;10427224;28;20033;-85
2023/06/10 23:54:33;;;;;;;13.23;9.90;;;;;;;;;;10446545;28;20033;-83
2023/06/10 23:59:34;;;;;;;13.52;11.20;;;;;;;;;;10434829;28;20088;-85
